Flight Track Log - Related Links

Times and Time Zones

All times are in EDT time to prevent confusion due to time zone crossing. See the N2852N flight status page for this flight to view local times or setup timezone preferences in your user account.

Time Position Orientation Groundspeed Altitude Reporting Facility
EDT Latitude Longitude Course Direction KTS MPH feet Rate Location/Type
Wed 06:10:15 PM 30.3989 -89.0917 246° West  Level FlightAware Approximate
Wed 06:11:15 PM 30.3815 -89.1362 246° West  Level FlightAware Approximate
Wed 06:12:15 PM 30.3640 -89.1808 246° West  Level FlightAware Approximate
Wed 06:13:15 PM 30.3466 -89.2254 246° West  Level FlightAware Approximate
Wed 06:14:15 PM 30.3235 -89.2628 250° West  Level FlightAware Approximate
Wed 06:15:01 PM 30.2914 -89.3664 248° West 225 259 6,000  Level Houston Center
Wed 06:16:08 PM 30.2714 -89.4247 244° Southwest 180 207 6,000 -331 Level Houston Center
Wed 06:17:08 PM 30.2514 -89.4731 248° West 164 189 5,300 -857 Descending Houston Center
Wed 06:18:21 PM 30.2314 -89.5314 250° West 161 185 4,100 -689 Descending Houston Center
Wed 06:19:10 PM 30.2194 -89.5700 245° Southwest 152 175 3,900 -606 Descending Houston Center
Wed 06:20:10 PM 30.1975 -89.6256 247° West 197 227 3,000 -446 Descending Houston Center
Wed 06:21:11 PM 30.1775 -89.6789 248° West 189 217 3,000 -197 Level Houston Center
Wed 06:22:12 PM 30.1594 -89.7297 248° West 170 196 2,600 -472 Descending Houston Center
Wed 06:23:18 PM 30.1372 -89.7925 246° West 187 215 2,000 -298 Descending Houston Center
Wed 06:24:13 PM 30.1211 -89.8336 251° West 174 200 2,000  Level Houston Center
Wed 06:25:13 PM 30.1050 -89.8869 255° West 160 184 2,000  Level Houston Center
Wed 06:26:14 PM 30.0953 -89.9278 252° West 136 157 2,000 -393 Level Houston Center
Wed 06:27:15 PM 30.0853 -89.9639 259° West 118 136 1,200 -645 Descending Houston Center
Wed 06:28:15 PM 30.0794 -89.9978 256° West 110 127 700 -248 Descending Houston Center
Wed 06:29:16 PM 30.0733 -90.0267 256° West 103 119 700  Level Houston Center

Login

Don't have an account? Register now (free) for customized features, flight alerts, and more!